Time;durP1;ratioP1;P1;durP2;ratioP2;P2;SDS_P1;SDS_P2;PMS_P1;PMS_P2;Temp;Humidity;BMP_temperature;BMP_pressure;BME280_temperature;BME280_humidity;BME280_pressure;Samples;Min_cycle;Max_cycle;Signal;HPM_P1;HPM_P2
2023/08/08 00:01:06;;;;;;;1.90;1.20;;;;;;;15.81;100.00;98522.29;109435;1253;60602;-65
2023/08/08 00:03:34;;;;;;;2.00;1.10;;;;;;;15.80;100.00;98522.47;109375;1253;58720;-65
2023/08/08 00:06:01;;;;;;;0.90;0.90;;;;;;;15.79;100.00;98521.87;109436;1253;72262;-66
2023/08/08 00:08:29;;;;;;;1.30;1.20;;;;;;;15.77;100.00;98519.70;109386;1254;68040;-66
2023/08/08 00:10:56;;;;;;;1.70;1.20;;;;;;;15.74;100.00;98519.05;109375;1253;74284;-66
2023/08/08 00:13:24;;;;;;;2.00;0.90;;;;;;;15.73;100.00;98520.58;109380;1254;60398;-66
2023/08/08 00:15:51;;;;;;;2.30;1.00;;;;;;;15.71;100.00;98524.65;109414;1254;58757;-66
2023/08/08 00:18:19;;;;;;;1.30;1.20;;;;;;;15.70;100.00;98527.13;109372;1253;72655;-67
2023/08/08 00:20:46;;;;;;;5.50;1.20;;;;;;;15.67;100.00;98529.90;109537;1253;67604;-65
2023/08/08 00:23:13;;;;;;;1.30;1.10;;;;;;;15.68;100.00;98529.77;109401;1254;72674;-66
2023/08/08 00:25:41;;;;;;;1.00;1.00;;;;;;;15.67;100.00;98534.34;109460;1253;60523;-66
2023/08/08 00:28:08;;;;;;;1.80;1.30;;;;;;;15.67;100.00;98535.90;109384;1253;58781;-66
2023/08/08 00:30:35;;;;;;;1.50;1.00;;;;;;;15.64;100.00;98537.16;109434;1253;73850;-66
2023/08/08 00:33:03;;;;;;;1.80;1.40;;;;;;;15.62;100.00;98536.11;109264;1254;68211;-66
2023/08/08 00:35:31;;;;;;;1.50;1.40;;;;;;;15.57;100.00;98535.88;109318;1253;72750;-66
2023/08/08 00:37:59;;;;;;;2.50;1.70;;;;;;;15.53;100.00;98543.69;109238;1253;60844;-66
2023/08/08 00:40:27;;;;;;;2.70;1.60;;;;;;;15.50;100.00;98544.05;109423;1253;60073;-66
2023/08/08 00:42:54;;;;;;;5.80;1.60;;;;;;;15.47;100.00;98546.19;109421;1256;73059;-66
2023/08/08 00:45:21;;;;;;;2.10;1.60;;;;;;;15.45;100.00;98551.18;109454;1253;68263;-66
2023/08/08 00:47:49;;;;;;;1.50;1.40;;;;;;;15.44;100.00;98554.44;109238;1253;72690;-66
2023/08/08 00:50:17;;;;;;;1.50;1.40;;;;;;;15.42;100.00;98557.92;109344;1254;61740;-66
2023/08/08 00:52:45;;;;;;;2.10;1.60;;;;;;;15.37;100.00;98562.55;109386;1253;58720;-66
2023/08/08 00:55:14;;;;;;;1.50;1.40;;;;;;;15.32;100.00;98566.27;109377;1253;72944;-64
2023/08/08 00:57:42;;;;;;;4.30;1.60;;;;;;;15.30;100.00;98565.39;109370;1253;67912;-64
2023/08/08 01:00:10;;;;;;;2.00;1.30;;;;;;;15.30;100.00;98572.55;109394;1254;71448;-64
2023/08/08 01:02:38;;;;;;;2.60;2.00;;;;;;;15.27;100.00;98576.76;109402;1252;60374;-65
2023/08/08 01:05:06;;;;;;;2.40;2.00;;;;;;;15.24;100.00;98580.63;109404;1253;58689;-65
2023/08/08 01:07:43;;;;;;;2.10;1.80;;;;;;;15.20;100.00;98585.03;109129;1253;72849;-66
2023/08/08 01:10:16;;;;;;;2.70;1.60;;;;;;;15.17;100.00;98590.38;109396;1254;67736;-66
2023/08/08 01:12:48;;;;;;;1.90;1.60;;;;;;;15.14;100.00;98592.59;109246;1253;72728;-66
2023/08/08 01:15:16;;;;;;;2.70;1.40;;;;;;;15.15;100.00;98592.13;109241;1253;60401;-66
2023/08/08 01:17:43;;;;;;;1.50;1.40;;;;;;;15.16;100.00;98595.29;109285;1253;58655;-66
2023/08/08 01:20:14;;;;;;;2.60;2.10;;;;;;;15.15;100.00;98595.42;109293;1253;73841;-66
2023/08/08 01:22:59;;;;;;;2.30;1.20;;;;;;;15.11;100.00;98601.55;109310;1253;67603;-65
2023/08/08 01:25:27;;;;;;;1.70;1.60;;;;;;;15.07;100.00;98608.28;109406;1253;72688;-66
2023/08/08 01:27:55;;;;;;;2.30;1.60;;;;;;;15.05;100.00;98608.20;109391;1254;60380;-66
2023/08/08 01:30:23;;;;;;;1.60;1.50;;;;;;;15.05;100.00;98612.08;109410;1253;58760;-66
2023/08/08 01:32:50;;;;;;;1.60;1.50;;;;;;;15.07;100.00;98617.91;109382;1254;72875;-66
2023/08/08 01:35:18;;;;;;;2.20;1.80;;;;;;;15.06;100.00;98620.02;109385;1253;67046;-66
2023/08/08 01:37:52;;;;;;;1.50;1.40;;;;;;;15.06;100.00;98622.13;109358;1254;72695;-66
2023/08/08 01:40:20;;;;;;;3.00;2.10;;;;;;;15.10;100.00;98633.30;109324;1254;61723;-66
2023/08/08 01:42:48;;;;;;;2.10;1.70;;;;;;;15.16;100.00;98634.48;109386;1253;60030;-66
2023/08/08 01:45:15;;;;;;;2.20;2.00;;;;;;;15.23;100.00;98639.27;109254;1254;73924;-66
2023/08/08 01:47:43;;;;;;;1.80;1.70;;;;;;;15.32;100.00;98641.22;109450;1254;67772;-66
2023/08/08 01:50:10;;;;;;;1.90;1.80;;;;;;;15.41;100.00;98644.23;109295;1254;72717;-66
2023/08/08 01:52:38;;;;;;;2.00;1.80;;;;;;;15.49;100.00;98643.45;109378;1254;60372;-66
2023/08/08 01:55:06;;;;;;;2.50;2.20;;;;;;;15.56;100.00;98639.63;109364;1254;58755;-66
2023/08/08 01:57:33;;;;;;;1.70;1.60;;;;;;;15.58;100.00;98644.16;109363;1253;74212;-66
2023/08/08 02:00:01;;;;;;;2.30;2.10;;;;;;;15.62;100.00;98645.58;109528;1253;67623;-66
2023/08/08 02:02:41;;;;;;;2.40;2.20;;;;;;;15.67;100.00;98650.96;109430;1254;72693;-65
2023/08/08 02:05:08;;;;;;;3.20;2.10;;;;;;;15.71;100.00;98651.91;109411;1253;61667;-64
2023/08/08 02:07:36;;;;;;;3.50;1.90;;;;;;;15.74;100.00;98653.36;109408;1252;59173;-65
2023/08/08 02:10:04;;;;;;;1.90;1.80;;;;;;;15.73;100.00;98653.58;109383;1253;73167;-64
2023/08/08 02:12:32;;;;;;;3.00;1.70;;;;;;;15.74;100.00;98652.52;109412;1252;66462;-65
2023/08/08 02:15:00;;;;;;;8.40;2.50;;;;;;;15.77;100.00;98653.52;109422;1252;73112;-65
2023/08/08 02:17:28;;;;;;;3.80;1.80;;;;;;;15.80;100.00;98653.88;109336;1254;60383;-65
2023/08/08 02:19:56;;;;;;;2.70;1.70;;;;;;;15.78;100.00;98654.63;109406;1253;60108;-66
2023/08/08 02:22:25;;;;;;;1.90;1.60;;;;;;;15.78;100.00;98657.02;109424;1253;72463;-66
2023/08/08 02:24:52;;;;;;;2.70;1.60;;;;;;;15.77;100.00;98652.23;109361;1253;66816;-65
2023/08/08 02:27:19;;;;;;;1.90;1.80;;;;;;;15.76;100.00;98657.20;109444;1253;71820;-65
2023/08/08 02:29:47;;;;;;;2.80;1.90;;;;;;;15.75;100.00;98657.17;109453;1253;61003;-65
2023/08/08 02:32:14;;;;;;;5.60;1.60;;;;;;;15.74;100.00;98659.13;109436;1253;60194;-65
2023/08/08 02:34:42;;;;;;;1.80;1.70;;;;;;;15.72;100.00;98662.12;109386;1252;74311;-65
2023/08/08 02:37:09;;;;;;;1.80;1.70;;;;;;;15.71;100.00;98665.77;109373;1253;68343;-65
2023/08/08 02:39:37;;;;;;;1.40;1.30;;;;;;;15.68;100.00;98666.33;109377;1254;72672;-65
2023/08/08 02:42:05;;;;;;;1.60;1.50;;;;;;;15.67;100.00;98666.30;109418;1253;61734;-65
2023/08/08 02:44:32;;;;;;;2.40;1.90;;;;;;;15.66;100.00;98668.80;109408;1252;59415;-65
2023/08/08 02:47:00;;;;;;;5.60;1.70;;;;;;;15.67;100.00;98669.40;109443;1253;72645;-65
2023/08/08 02:49:28;;;;;;;3.40;1.80;;;;;;;15.67;100.00;98673.32;109445;1254;67929;-66
2023/08/08 02:51:55;;;;;;;3.30;1.60;;;;;;;15.65;100.00;98667.19;109243;1254;72661;-65
2023/08/08 02:54:26;;;;;;;2.10;1.40;;;;;;;15.62;100.00;98669.24;109213;1253;61828;-66
2023/08/08 02:56:54;;;;;;;1.80;1.30;;;;;;;15.60;100.00;98670.09;109232;1253;60075;-66
2023/08/08 02:59:21;;;;;;;2.00;1.90;;;;;;;15.55;100.00;98672.36;109383;1254;73844;-65
2023/08/08 03:01:50;;;;;;;2.00;1.50;;;;;;;15.49;100.00;98671.90;109416;1253;66894;-65
2023/08/08 03:04:17;;;;;;;4.40;1.60;;;;;;;15.42;100.00;98672.63;109309;1254;72668;-65
2023/08/08 03:06:45;;;;;;;1.90;1.80;;;;;;;15.36;100.00;98674.11;109274;1253;60591;-65
2023/08/08 03:09:12;;;;;;;1.60;1.50;;;;;;;15.31;100.00;98678.20;109374;1254;58720;-65
2023/08/08 03:11:41;;;;;;;1.70;1.60;;;;;;;15.26;100.00;98679.45;109420;1254;73785;-65
2023/08/08 03:14:10;;;;;;;3.50;1.70;;;;;;;15.21;100.00;98675.28;109408;1253;66429;-65
2023/08/08 03:16:38;;;;;;;1.70;1.60;;;;;;;15.20;100.00;98683.71;109351;1254;72677;-65
2023/08/08 03:19:06;;;;;;;2.40;1.80;;;;;;;15.18;100.00;98681.45;109248;1254;60283;-65
2023/08/08 03:21:34;;;;;;;4.90;1.50;;;;;;;15.17;100.00;98682.05;109315;1253;60022;-65
2023/08/08 03:24:02;;;;;;;2.20;1.70;;;;;;;15.16;100.00;98689.80;109278;1253;73832;-65
2023/08/08 03:26:30;;;;;;;1.80;1.70;;;;;;;15.17;100.00;98700.27;109359;1253;66376;-66
2023/08/08 03:28:57;;;;;;;1.60;1.50;;;;;;;15.16;100.00;98699.27;109413;1253;72662;-65
2023/08/08 03:31:30;;;;;;;1.60;1.50;;;;;;;15.14;100.00;98703.62;109215;1252;60922;-65
2023/08/08 03:34:00;;;;;;;1.60;1.50;;;;;;;15.12;100.00;98709.90;109382;1254;58777;-66
2023/08/08 03:36:27;;;;;;;2.10;1.50;;;;;;;15.15;100.00;98714.66;109289;1253;73829;-66
2023/08/08 03:38:55;;;;;;;1.60;1.50;;;;;;;15.16;100.00;98713.16;109311;1254;66723;-66
2023/08/08 03:41:22;;;;;;;2.30;1.40;;;;;;;15.14;100.00;98711.28;109286;1254;72721;-64
2023/08/08 03:43:49;;;;;;;1.60;1.50;;;;;;;15.12;100.00;98711.91;109379;1258;61668;-66
2023/08/08 03:46:18;;;;;;;1.70;1.60;;;;;;;15.15;100.00;98710.73;109245;1253;58962;-66
2023/08/08 03:48:45;;;;;;;1.90;1.60;;;;;;;15.18;100.00;98711.13;109414;1254;72525;-66
2023/08/08 03:51:13;;;;;;;1.80;1.70;;;;;;;15.19;100.00;98709.52;109265;1254;66346;-65
2023/08/08 03:53:40;;;;;;;1.70;1.50;;;;;;;15.20;100.00;98712.23;109381;1253;72666;-66
2023/08/08 03:56:07;;;;;;;1.50;1.40;;;;;;;15.24;100.00;98717.59;109365;1253;61660;-67
2023/08/08 03:58:36;;;;;;;1.90;1.80;;;;;;;15.25;100.00;98722.67;109441;1254;60241;-66
2023/08/08 04:01:05;;;;;;;1.80;1.60;;;;;;;15.27;100.00;98724.66;109307;1254;72010;-67
2023/08/08 04:03:33;;;;;;;1.70;1.60;;;;;;;15.35;100.00;98723.15;109381;1252;67612;-65
2023/08/08 04:06:00;;;;;;;5.00;1.50;;;;;;;15.58;100.00;98724.72;109342;1252;73681;-66
2023/08/08 04:08:27;;;;;;;2.50;1.60;;;;;;;15.87;100.00;98723.93;109395;1253;61676;-66
2023/08/08 04:10:55;;;;;;;2.80;2.10;;;;;;;16.09;100.00;98728.45;109433;1253;59366;-66
2023/08/08 04:13:22;;;;;;;1.60;1.50;;;;;;;16.23;100.00;98731.27;109386;1254;73832;-66
2023/08/08 04:15:51;;;;;;;2.00;1.90;;;;;;;16.30;100.00;98735.17;109473;1253;66282;-66
2023/08/08 04:18:19;;;;;;;2.60;2.00;;;;;;;16.34;100.00;98739.10;109451;1252;71795;-65
2023/08/08 04:20:49;;;;;;;2.70;2.20;;;;;;;16.37;100.00;98743.06;109315;1254;61643;-66
2023/08/08 04:23:16;;;;;;;3.90;2.60;;;;;;;16.39;100.00;98739.91;109518;1253;58863;-65
2023/08/08 04:25:44;;;;;;;3.20;2.20;;;;;;;16.42;100.00;98749.11;109433;1254;71826;-66
2023/08/08 04:28:11;;;;;;;2.80;2.60;;;;;;;16.45;100.00;98751.60;109411;1252;68023;-66
2023/08/08 04:30:39;;;;;;;2.20;2.00;;;;;;;16.51;100.00;98758.13;109376;1254;72786;-66
2023/08/08 04:33:06;;;;;;;2.30;2.10;;;;;;;16.54;100.00;98763.58;109397;1253;61474;-65
2023/08/08 04:35:34;;;;;;;2.60;1.90;;;;;;;16.55;100.00;98768.52;109353;1253;59125;-65
2023/08/08 04:38:01;;;;;;;2.50;2.30;;;;;;;16.52;100.00;98772.59;109324;1253;72601;-65
2023/08/08 04:40:29;;;;;;;2.50;2.30;;;;;;;16.44;100.00;98773.22;109359;1253;67042;-65
2023/08/08 04:42:56;;;;;;;3.40;2.00;;;;;;;16.37;100.00;98780.73;109376;1253;72709;-65
2023/08/08 04:45:24;;;;;;;3.10;2.80;;;;;;;16.31;100.00;98785.02;109383;1258;59815;-65
2023/08/08 04:47:51;;;;;;;3.00;2.40;;;;;;;16.26;100.00;98792.48;109419;1253;58766;-66
2023/08/08 04:50:18;;;;;;;2.90;2.70;;;;;;;16.20;100.00;98795.90;109355;1254;74101;-65
2023/08/08 04:52:46;;;;;;;3.40;3.20;;;;;;;16.11;100.00;98798.39;109410;1253;68146;-66
2023/08/08 04:55:13;;;;;;;3.10;2.90;;;;;;;16.04;100.00;98803.95;109354;1254;72645;-66
2023/08/08 04:57:41;;;;;;;3.00;2.80;;;;;;;15.96;100.00;98815.41;109336;1254;60375;-65
2023/08/08 05:00:08;;;;;;;3.70;3.30;;;;;;;15.93;100.00;98822.81;109378;1253;60708;-66
2023/08/08 05:02:36;;;;;;;3.60;3.30;;;;;;;15.91;100.00;98828.13;109422;1253;74286;-65
2023/08/08 05:05:04;;;;;;;3.40;3.10;;;;;;;15.92;100.00;98832.66;109384;1254;66821;-65
2023/08/08 05:07:31;;;;;;;3.30;3.00;;;;;;;15.95;100.00;98836.89;109400;1254;71386;-66
2023/08/08 05:09:59;;;;;;;4.50;3.10;;;;;;;15.98;100.00;98841.23;109318;1254;61779;-65
2023/08/08 05:12:26;;;;;;;3.50;3.20;;;;;;;16.01;100.00;98845.45;109207;1254;248796;-64
2023/08/08 05:14:54;;;;;;;4.40;3.00;;;;;;;16.05;100.00;98846.77;109412;1254;73838;-65
2023/08/08 05:17:22;;;;;;;5.00;3.20;;;;;;;16.09;100.00;98855.54;109384;1253;68627;-64
2023/08/08 05:19:49;;;;;;;4.10;3.30;;;;;;;16.13;100.00;98860.09;109472;1253;71498;-66
2023/08/08 05:22:17;;;;;;;3.10;2.80;;;;;;;16.18;100.00;98867.88;109316;1254;62184;-65
2023/08/08 05:24:44;;;;;;;6.20;3.20;;;;;;;16.25;100.00;98860.91;109363;1254;58793;-66
2023/08/08 05:27:11;;;;;;;3.20;2.90;;;;;;;16.34;100.00;98859.95;109500;1254;72181;-66
2023/08/08 05:29:40;;;;;;;3.90;3.40;;;;;;;16.41;100.00;98864.56;109379;1253;67906;-66
2023/08/08 05:32:08;;;;;;;3.30;3.00;;;;;;;16.47;100.00;98874.70;109337;1254;73068;-65
2023/08/08 05:34:35;;;;;;;5.00;4.00;;;;;;;16.48;100.00;98871.29;109407;1254;60401;-66
2023/08/08 05:37:03;;;;;;;3.30;3.00;;;;;;;16.49;100.00;98877.11;109414;1254;58849;-66
2023/08/08 05:39:43;;;;;;;4.10;3.10;;;;;;;16.51;100.00;98874.85;109335;1254;73871;-66
2023/08/08 05:42:10;;;;;;;3.70;3.40;;;;;;;16.52;100.00;98875.44;109384;1253;67899;-66
2023/08/08 05:44:38;;;;;;;3.60;3.30;;;;;;;16.56;100.00;98873.23;109357;1254;72663;-66
2023/08/08 05:47:05;;;;;;;3.00;2.80;;;;;;;16.66;100.00;98875.30;109485;1253;61963;-66
2023/08/08 05:49:33;;;;;;;4.60;3.00;;;;;;;16.81;100.00;98877.13;109402;1254;60006;-65
2023/08/08 05:52:01;;;;;;;5.40;3.10;;;;;;;16.98;100.00;98873.90;109393;1254;72603;-66
2023/08/08 05:54:29;;;;;;;2.90;2.70;;;;;;;17.12;100.00;98870.66;109378;1253;65935;-67
2023/08/08 05:56:56;;;;;;;2.90;2.70;;;;;;;17.29;100.00;98869.61;109416;1253;72704;-66
2023/08/08 05:59:24;;;;;;;3.70;2.90;;;;;;;17.49;100.00;98869.58;109316;1254;61817;-66
2023/08/08 06:01:51;;;;;;;2.70;2.50;;;;;;;17.63;100.00;98868.02;109391;1254;58817;-65
2023/08/08 06:04:19;;;;;;;4.10;3.00;;;;;;;17.76;100.00;98868.14;109477;1257;73821;-65
2023/08/08 06:06:48;;;;;;;4.10;2.60;;;;;;;17.88;100.00;98869.29;109448;1254;67985;-66
2023/08/08 06:09:16;;;;;;;2.70;2.50;;;;;;;17.93;100.00;98869.86;109353;1254;74032;-66
2023/08/08 06:11:44;;;;;;;3.10;2.80;;;;;;;17.95;100.00;98867.44;109408;1253;60143;-66
2023/08/08 06:14:12;;;;;;;3.70;2.70;;;;;;;18.00;100.00;98865.11;109505;1253;58778;-66
2023/08/08 06:16:39;;;;;;;3.10;2.90;;;;;;;18.07;100.00;98866.28;109466;1252;73086;-66
2023/08/08 06:19:07;;;;;;;2.70;2.50;;;;;;;18.10;100.00;98865.80;109522;1254;66313;-66
2023/08/08 06:21:35;;;;;;;2.80;2.60;;;;;;;18.12;100.00;98868.30;109389;1253;72805;-66
2023/08/08 06:24:02;;;;;;;4.80;2.40;;;;;;;18.19;100.00;98868.55;109394;1254;61658;-66
2023/08/08 06:26:30;;;;;;;3.60;2.40;;;;;;;18.34;100.00;98867.88;109480;1252;58716;-66
2023/08/08 06:28:57;;;;;;;5.70;2.50;;;;;;;18.47;100.00;98861.55;109350;1253;72696;-68
2023/08/08 06:31:25;;;;;;;5.50;2.60;;;;;;;18.57;100.00;98859.15;109370;1254;67781;-68
2023/08/08 06:33:53;;;;;;;7.00;2.30;;;;;;;18.66;100.00;98856.00;109337;1253;72647;-67
2023/08/08 06:36:21;;;;;;;4.10;2.60;;;;;;;18.72;100.00;98854.46;109368;1252;60452;-66
2023/08/08 06:38:48;;;;;;;2.70;2.10;;;;;;;18.79;100.00;98853.70;109406;1254;60040;-67
2023/08/08 06:41:15;;;;;;;5.60;2.40;;;;;;;18.87;100.00;98849.98;109364;1253;73891;-66
2023/08/08 06:43:43;;;;;;;3.60;2.50;;;;;;;19.05;100.00;98853.74;109431;1254;68066;-65
2023/08/08 06:46:10;;;;;;;3.60;2.30;;;;;;;19.37;100.00;98853.19;109336;1253;71421;-66
2023/08/08 06:48:38;;;;;;;2.70;2.30;;;;;;;19.67;100.00;98848.89;109443;1253;61676;-66
2023/08/08 06:51:05;;;;;;;4.90;2.50;;;;;;;20.13;100.00;98846.90;109416;1254;58776;-67
2023/08/08 06:53:41;;;;;;;3.70;2.20;;;;;;;20.69;100.00;98839.88;109395;1254;73900;-67
2023/08/08 06:56:08;;;;;;;3.10;2.10;;;;;;;21.07;100.00;98839.14;109376;1254;66499;-65
2023/08/08 06:58:36;;;;;;;3.30;2.50;;;;;;;21.19;100.00;98840.63;109474;1256;71410;-66
2023/08/08 07:01:03;;;;;;;4.50;2.30;;;;;;;21.09;100.00;98842.61;109415;1254;60047;-65
2023/08/08 07:03:31;;;;;;;4.20;2.40;;;;;;;20.95;100.00;98845.62;109406;1253;60365;-65
2023/08/08 07:06:00;;;;;;;93.30;8.30;;;;;;;20.82;100.00;98847.95;109388;1254;73049;-58
2023/08/08 07:08:27;;;;;;;7.30;2.60;;;;;;;20.66;100.00;98849.27;109431;1253;65876;-61
2023/08/08 07:10:57;;;;;;;3.20;2.40;;;;;;;20.58;100.00;98851.16;109353;1254;74162;-62
2023/08/08 07:13:24;;;;;;;4.40;2.60;;;;;;;20.56;100.00;98847.34;109352;1256;60411;-68
2023/08/08 07:15:51;;;;;;;5.30;2.50;;;;;;;20.56;100.00;98848.20;109450;1254;60102;-66
2023/08/08 07:18:19;;;;;;;4.00;2.30;;;;;;;20.53;100.00;98845.03;109345;1254;73547;-66
2023/08/08 07:20:46;;;;;;;6.20;2.00;;;;;;;20.49;100.00;98846.27;109366;1253;67722;-70
2023/08/08 07:23:14;;;;;;;9.50;3.20;;;;;;;20.49;100.00;98846.91;109386;1253;71440;-66
2023/08/08 07:25:42;;;;;;;3.90;2.70;;;;;;;20.58;100.00;98851.63;109372;1253;60130;-66
2023/08/08 07:28:09;;;;;;;3.20;2.10;;;;;;;20.71;100.00;98850.56;109363;1254;60044;-68
2023/08/08 07:30:36;;;;;;;3.40;2.40;;;;;;;20.95;100.00;98852.23;109429;1253;73857;-66
2023/08/08 07:33:04;;;;;;;4.30;1.80;;;;;;;21.30;100.00;98852.66;109362;1254;67893;-67
2023/08/08 07:35:33;;;;;;;3.50;2.20;;;;;;;21.75;100.00;98847.52;109384;1254;73223;-66
2023/08/08 07:38:00;;;;;;;2.30;1.90;;;;;;;22.11;100.00;98843.41;109376;1254;60088;-67
2023/08/08 07:40:27;;;;;;;2.80;2.30;;;;;;;22.14;100.00;98843.10;109395;1253;59178;-66
2023/08/08 07:42:55;;;;;;;3.00;2.50;;;;;;;21.97;100.00;98851.16;109513;1253;73855;-66
2023/08/08 07:45:22;;;;;;;3.00;1.80;;;;;;;21.80;100.00;98852.49;109436;1254;66352;-66
2023/08/08 07:47:50;;;;;;;2.60;2.20;;;;;;;21.66;100.00;98855.69;109379;1254;72687;-66
2023/08/08 07:50:18;;;;;;;6.20;2.10;;;;;;;21.72;100.00;98854.96;109399;1253;59186;-66
2023/08/08 07:52:45;;;;;;;5.60;2.50;;;;;;;22.02;100.00;98853.25;109405;1254;58948;-67
2023/08/08 07:55:13;;;;;;;5.80;1.90;;;;;;;22.13;100.00;98857.94;109360;1254;74751;-67
2023/08/08 07:57:40;;;;;;;6.00;2.40;;;;;;;22.37;100.00;98850.73;109438;1254;67965;-65
2023/08/08 08:00:11;;;;;;;3.80;2.10;;;;;;;22.83;100.00;98851.67;109497;1254;72709;-66
2023/08/08 08:02:41;;;;;;;2.40;2.10;;;;;;;23.35;100.00;98849.43;109230;1253;58794;-68
2023/08/08 08:05:09;;;;;;;4.20;2.20;;;;;;;23.92;100.00;98850.56;109443;1253;58741;-67
2023/08/08 08:07:37;;;;;;;3.40;2.00;;;;;;;24.37;100.00;98844.41;109418;1254;73948;-67
2023/08/08 08:10:07;;;;;;;3.30;1.90;;;;;;;24.79;100.00;98843.83;109531;1253;67869;-66
2023/08/08 08:12:35;;;;;;;5.20;2.30;;;;;;;25.26;100.00;98840.36;109363;1254;72642;-66
2023/08/08 08:15:02;;;;;;;3.70;2.20;;;;;;;25.51;100.00;98843.23;109360;1254;60556;-66
2023/08/08 08:17:30;;;;;;;2.30;1.90;;;;;;;25.53;100.00;98841.44;109424;1254;59275;-67
2023/08/08 08:19:57;;;;;;;4.90;2.00;;;;;;;25.58;100.00;98841.84;109381;1253;73788;-67
2023/08/08 08:22:25;;;;;;;4.20;1.90;;;;;;;25.42;100.00;98847.91;109453;1253;67101;-67
2023/08/08 08:24:52;;;;;;;5.10;2.60;;;;;;;25.10;100.00;98846.42;109405;1254;71424;-66
2023/08/08 08:27:19;;;;;;;6.30;3.10;;;;;;;24.77;100.00;98848.67;109370;1253;60076;-67
2023/08/08 08:29:47;;;;;;;3.30;2.20;;;;;;;24.30;100.00;98853.55;109421;1258;60145;-67
2023/08/08 08:32:15;;;;;;;2.80;2.10;;;;;;;23.83;100.00;98852.95;109413;1259;73862;-67
2023/08/08 08:34:44;;;;;;;4.20;1.90;;;;;;;23.88;100.00;98855.07;109371;1254;69823;-67
2023/08/08 08:37:11;;;;;;;3.60;1.60;;;;;;;24.28;100.00;98854.98;109421;1253;72696;-67
2023/08/08 08:39:39;;;;;;;2.80;1.80;;;;;;;24.79;100.00;98852.04;109407;1254;58770;-67
2023/08/08 08:42:06;;;;;;;2.90;1.50;;;;;;;25.16;100.00;98849.23;109382;1253;60094;-67
2023/08/08 08:44:34;;;;;;;5.00;2.10;;;;;;;25.37;98.86;98851.80;109178;1253;73856;-66
2023/08/08 08:47:01;;;;;;;2.30;1.60;;;;;;;25.42;95.66;98853.73;109300;1254;66941;-66
2023/08/08 08:49:29;;;;;;;3.60;1.90;;;;;;;25.22;95.34;98854.39;109334;1254;72671;-66
2023/08/08 08:52:00;;;;;;;2.70;1.50;;;;;;;24.90;93.90;98854.77;109406;1254;60027;-67
2023/08/08 08:54:29;;;;;;;2.70;1.40;;;;;;;24.61;95.15;98856.87;109280;1253;59112;-67
2023/08/08 08:56:59;;;;;;;2.50;1.50;;;;;;;24.51;94.62;98857.27;109415;1254;73893;-67
2023/08/08 08:59:27;;;;;;;3.90;2.10;;;;;;;24.24;93.78;98861.02;109458;1254;66363;-67
2023/08/08 09:01:54;;;;;;;2.00;1.40;;;;;;;24.13;95.49;98864.98;109375;1253;71957;-66
2023/08/08 09:04:21;;;;;;;2.10;1.60;;;;;;;24.45;97.57;98861.79;109238;1253;60070;-67
2023/08/08 09:06:50;;;;;;;5.30;1.90;;;;;;;24.89;95.17;98857.29;109526;1254;61404;-65
2023/08/08 09:09:17;;;;;;;3.30;1.50;;;;;;;25.13;88.72;98855.67;109424;1254;74184;-67
2023/08/08 09:11:45;;;;;;;1.30;1.20;;;;;;;25.06;85.93;98857.16;109413;1254;66582;-67
2023/08/08 09:14:19;;;;;;;1.50;1.30;;;;;;;24.92;85.63;98859.14;109384;1254;71066;-66
2023/08/08 09:16:47;;;;;;;5.20;1.30;;;;;;;24.73;86.00;98863.42;109393;1255;58735;-66
2023/08/08 09:19:15;;;;;;;2.30;1.20;;;;;;;24.48;86.75;98860.42;109363;1254;60272;-66
2023/08/08 09:21:42;;;;;;;3.40;1.40;;;;;;;24.11;87.76;98866.77;109429;1254;74018;-66
2023/08/08 09:24:10;;;;;;;3.30;1.70;;;;;;;23.69;89.70;98871.55;109432;1255;67593;-67
2023/08/08 09:26:39;;;;;;;4.40;1.70;;;;;;;23.31;93.47;98872.98;109346;1254;71999;-66
2023/08/08 09:29:06;;;;;;;3.40;1.50;;;;;;;23.10;97.95;98871.48;109395;1258;60124;-65
2023/08/08 09:31:34;;;;;;;5.00;1.70;;;;;;;23.46;99.01;98868.90;109403;1254;60173;-66
2023/08/08 09:34:02;;;;;;;1.90;1.10;;;;;;;24.09;96.05;98865.40;109363;1254;74690;-67
2023/08/08 09:36:33;;;;;;;2.40;1.40;;;;;;;24.84;93.46;98863.77;109438;1254;67610;-67
2023/08/08 09:39:00;;;;;;;3.70;1.50;;;;;;;25.62;88.64;98863.92;109364;1257;71460;-67
2023/08/08 09:41:28;;;;;;;2.70;1.40;;;;;;;26.36;82.05;98856.25;109394;1254;58510;-65
2023/08/08 09:43:55;;;;;;;1.40;1.00;;;;;;;26.68;72.38;98856.33;109386;1253;59899;-66
2023/08/08 09:46:23;;;;;;;3.70;1.40;;;;;;;26.38;69.87;98857.45;109386;1254;73340;-67
2023/08/08 09:48:51;;;;;;;2.40;1.70;;;;;;;25.93;71.92;98854.65;109423;1253;66790;-67
2023/08/08 09:51:18;;;;;;;2.60;1.50;;;;;;;25.54;74.97;98858.53;109257;1253;71454;-67
2023/08/08 09:53:47;;;;;;;2.70;1.70;;;;;;;25.61;74.80;98857.39;109269;1255;59079;-66
2023/08/08 09:56:14;;;;;;;2.80;1.70;;;;;;;26.20;73.17;98856.08;109324;1255;58789;-67
2023/08/08 09:58:42;;;;;;;1.80;1.30;;;;;;;26.66;69.69;98855.14;109364;1254;72768;-66
2023/08/08 10:01:12;;;;;;;1.80;1.60;;;;;;;26.78;68.75;98851.42;109456;1254;67102;-66
2023/08/08 10:03:42;;;;;;;4.10;1.40;;;;;;;26.73;70.69;98855.62;109396;1255;71442;-65
2023/08/08 10:06:10;;;;;;;13.10;1.80;;;;;;;26.33;70.55;98856.34;109379;1253;60076;-65
2023/08/08 10:08:38;;;;;;;2.60;1.50;;;;;;;25.86;72.41;98856.55;109319;1254;58736;-67
2023/08/08 10:11:05;;;;;;;7.50;1.80;;;;;;;25.29;74.33;98860.39;109462;1254;73843;-67
2023/08/08 10:13:33;;;;;;;5.70;1.50;;;;;;;24.84;79.30;98864.10;109210;1254;67657;-66
2023/08/08 10:16:04;;;;;;;1.90;1.20;;;;;;;24.47;80.75;98865.44;109164;1253;72130;-66
2023/08/08 10:18:31;;;;;;;2.60;1.50;;;;;;;24.08;81.97;98868.13;109406;1254;59572;-66
2023/08/08 10:20:59;;;;;;;4.00;1.60;;;;;;;23.74;85.04;98872.94;109351;1254;60011;-66
2023/08/08 10:23:26;;;;;;;9.30;2.20;;;;;;;23.51;89.15;98869.58;109414;1253;73857;-66
2023/08/08 10:25:56;;;;;;;3.10;1.70;;;;;;;23.52;88.90;98868.70;109179;1254;67619;-66
2023/08/08 10:28:23;;;;;;;1.90;1.50;;;;;;;23.54;87.16;98869.30;109367;1258;72658;-66
2023/08/08 10:30:56;;;;;;;1.60;1.40;;;;;;;23.33;84.59;98868.64;109255;1254;58828;-66
2023/08/08 10:33:28;;;;;;;4.10;1.40;;;;;;;22.99;86.24;98868.19;109350;1253;58708;-65
2023/08/08 10:35:59;;;;;;;6.40;1.50;;;;;;;22.74;90.57;98872.08;109400;1254;74061;-67
2023/08/08 10:38:38;;;;;;;1.80;1.20;;;;;;;22.63;91.17;98870.02;109411;1253;68273;-66
2023/08/08 10:41:09;;;;;;;11.90;2.10;;;;;;;22.63;93.43;98876.02;109400;1254;72064;-67
2023/08/08 10:43:36;;;;;;;6.50;1.50;;;;;;;22.66;95.12;98873.23;109387;1254;60101;-67
2023/08/08 10:46:04;;;;;;;4.00;1.50;;;;;;;22.64;94.79;98872.94;109460;1253;60208;-66
2023/08/08 10:48:53;;;;;;;3.60;1.50;;;;;;;22.47;93.60;98875.68;109310;1254;72647;-67
2023/08/08 10:51:21;;;;;;;3.30;1.70;;;;;;;22.24;94.20;98877.30;109417;1253;67746;-67
2023/08/08 10:53:52;;;;;;;4.60;1.40;;;;;;;22.05;95.58;98883.56;109394;1254;73272;-67
2023/08/08 10:56:20;;;;;;;3.80;1.70;;;;;;;21.87;96.71;98886.42;109384;1254;58832;-66
2023/08/08 10:58:48;;;;;;;4.70;1.50;;;;;;;21.76;99.34;98887.87;109404;1254;58769;-65
2023/08/08 11:01:16;;;;;;;3.70;1.20;;;;;;;21.78;100.00;98886.70;109421;1253;73837;-67
2023/08/08 11:03:44;;;;;;;6.30;1.60;;;;;;;21.84;100.00;98891.42;109432;1253;66389;-66
2023/08/08 11:06:12;;;;;;;2.50;1.60;;;;;;;21.90;100.00;98891.84;109238;1254;72753;-67
2023/08/08 11:08:39;;;;;;;6.90;1.70;;;;;;;21.94;100.00;98893.77;109346;1254;60124;-66
2023/08/08 11:11:07;;;;;;;4.40;1.50;;;;;;;21.92;100.00;98895.02;109416;1253;59115;-64
2023/08/08 11:13:34;;;;;;;5.50;2.10;;;;;;;21.92;100.00;98898.94;109403;1253;72160;-66
2023/08/08 11:16:02;;;;;;;3.90;1.60;;;;;;;22.02;100.00;98900.11;109377;1253;67610;-65
2023/08/08 11:18:29;;;;;;;2.80;1.20;;;;;;;22.21;99.57;98902.38;109442;1254;72659;-67
2023/08/08 11:20:57;;;;;;;1.10;1.00;;;;;;;22.35;97.74;98900.27;109402;1254;60161;-66
2023/08/08 11:23:39;;;;;;;2.20;1.20;;;;;;;22.42;95.03;98898.35;109440;1253;60083;-66